Time;durP1;ratioP1;P1;durP2;ratioP2;P2;SDS_P1;SDS_P2;PMS_P1;PMS_P2;Temp;Humidity;BMP_temperature;BMP_pressure;BME280_temperature;BME280_humidity;BME280_pressure;Samples;Min_cycle;Max_cycle;Signal;HPM_P1;HPM_P2
2023/08/24 00:00:59;;;;;;;7.97;4.10;;;;;;;;;;5044193;28;20123;-77
2023/08/24 00:03:25;;;;;;;6.88;3.55;;;;;;;;;;5054669;28;20025;-76
2023/08/24 00:05:51;;;;;;;6.53;3.22;;;;;;;;;;5054496;28;20041;-77
2023/08/24 00:08:17;;;;;;;5.43;3.25;;;;;;;;;;5045046;28;20029;-77
2023/08/24 00:10:43;;;;;;;7.38;4.07;;;;;;;;;;5037401;28;20035;-77
2023/08/24 00:13:08;;;;;;;5.75;3.50;;;;;;;;;;5054740;28;20045;-76
2023/08/24 00:15:35;;;;;;;7.30;4.30;;;;;;;;;;5053651;28;20146;-76
2023/08/24 00:18:00;;;;;;;6.35;3.67;;;;;;;;;;5054504;28;20092;-77
2023/08/24 00:20:27;;;;;;;5.80;3.55;;;;;;;;;;5053172;28;20119;-77
2023/08/24 00:22:52;;;;;;;6.05;3.60;;;;;;;;;;5058536;28;20024;-77
2023/08/24 00:25:18;;;;;;;6.47;3.92;;;;;;;;;;5052976;28;20035;-77
2023/08/24 00:27:43;;;;;;;5.97;3.55;;;;;;;;;;5055309;28;20040;-76
2023/08/24 00:30:09;;;;;;;7.38;3.90;;;;;;;;;;5038877;28;20029;-76
2023/08/24 00:32:35;;;;;;;7.30;3.63;;;;;;;;;;5040507;28;20037;-77
2023/08/24 00:35:05;;;;;;;6.40;3.47;;;;;;;;;;5037536;28;20028;-77
2023/08/24 00:37:31;;;;;;;5.60;4.07;;;;;;;;;;5052605;28;20104;-77
2023/08/24 00:39:56;;;;;;;9.50;4.38;;;;;;;;;;5054037;28;20057;-77
2023/08/24 00:42:22;;;;;;;6.80;3.67;;;;;;;;;;5038876;28;20033;-77
2023/08/24 00:44:48;;;;;;;5.38;3.70;;;;;;;;;;5063034;28;20059;-77
2023/08/24 00:47:13;;;;;;;4.45;2.92;;;;;;;;;;5039000;28;20029;-77
2023/08/24 00:49:39;;;;;;;5.55;3.38;;;;;;;;;;5045785;28;20252;-77
2023/08/24 00:52:04;;;;;;;6.28;3.40;;;;;;;;;;5038650;28;20033;-77
2023/08/24 00:54:30;;;;;;;5.45;3.35;;;;;;;;;;5055513;28;20040;-77
2023/08/24 00:56:55;;;;;;;5.78;3.60;;;;;;;;;;5044458;28;20033;-77
2023/08/24 00:59:21;;;;;;;5.95;3.55;;;;;;;;;;5044263;28;20040;-77
2023/08/24 01:01:48;;;;;;;7.43;3.28;;;;;;;;;;5036586;28;20130;-77
2023/08/24 01:04:13;;;;;;;6.10;3.13;;;;;;;;;;5045807;28;20053;-76
2023/08/24 01:06:38;;;;;;;7.03;3.65;;;;;;;;;;5054362;28;20125;-77
2023/08/24 01:09:04;;;;;;;6.00;3.60;;;;;;;;;;5043116;28;20033;-77
2023/08/24 01:11:48;;;;;;;7.60;3.60;;;;;;;;;;5035360;28;20097;-77
2023/08/24 01:14:33;;;;;;;7.70;3.40;;;;;;;;;;5047774;28;20033;-77
2023/08/24 01:16:59;;;;;;;7.28;2.97;;;;;;;;;;5052836;28;20042;-77
2023/08/24 01:19:30;;;;;;;4.88;3.20;;;;;;;;;;5020373;28;20029;-77
2023/08/24 01:21:56;;;;;;;6.90;3.17;;;;;;;;;;5040898;28;20116;-77
2023/08/24 01:24:48;;;;;;;4.20;2.75;;;;;;;;;;5037799;28;20032;-77
2023/08/24 01:27:14;;;;;;;5.28;2.67;;;;;;;;;;5048448;28;20436;-76
2023/08/24 01:29:41;;;;;;;4.50;3.22;;;;;;;;;;5036202;28;20029;-77
2023/08/24 01:32:10;;;;;;;6.35;2.90;;;;;;;;;;5055525;28;20116;-77
2023/08/24 01:34:36;;;;;;;6.18;3.13;;;;;;;;;;5020823;28;20037;-77
2023/08/24 01:37:01;;;;;;;5.10;3.08;;;;;;;;;;5055039;28;20506;-77
2023/08/24 01:39:34;;;;;;;5.97;3.63;;;;;;;;;;5042344;28;20128;-77
2023/08/24 01:42:01;;;;;;;6.93;3.60;;;;;;;;;;5032830;28;20033;-77
2023/08/24 01:44:29;;;;;;;7.30;3.45;;;;;;;;;;5036710;28;20188;-77
2023/08/24 01:46:56;;;;;;;6.43;3.20;;;;;;;;;;5034547;28;20029;-77
2023/08/24 01:49:24;;;;;;;5.68;3.28;;;;;;;;;;5036748;28;20092;-77
2023/08/24 01:51:50;;;;;;;5.80;3.40;;;;;;;;;;5062845;28;20078;-77
2023/08/24 01:54:15;;;;;;;5.00;2.80;;;;;;;;;;5059087;28;20045;-77
2023/08/24 01:56:40;;;;;;;6.47;3.47;;;;;;;;;;5050942;28;20030;-76
2023/08/24 01:59:06;;;;;;;4.57;2.83;;;;;;;;;;5043571;28;20025;-77
2023/08/24 02:01:31;;;;;;;7.80;3.10;;;;;;;;;;5042235;28;20029;-77
2023/08/24 02:03:56;;;;;;;6.20;2.97;;;;;;;;;;5054908;28;20067;-77
2023/08/24 02:06:21;;;;;;;6.30;3.70;;;;;;;;;;5042237;28;20491;-78
2023/08/24 02:08:47;;;;;;;7.57;3.53;;;;;;;;;;5043105;28;20112;-76
2023/08/24 02:11:12;;;;;;;5.57;3.80;;;;;;;;;;5053059;28;20029;-77
2023/08/24 02:13:38;;;;;;;5.18;3.50;;;;;;;;;;5041433;28;20033;-77
2023/08/24 02:16:04;;;;;;;6.07;3.60;;;;;;;;;;5043836;28;20036;-76
2023/08/24 02:18:29;;;;;;;7.60;3.42;;;;;;;;;;5050837;28;20045;-76
2023/08/24 02:20:54;;;;;;;7.45;3.53;;;;;;;;;;5041652;28;20036;-77
2023/08/24 02:23:19;;;;;;;4.72;3.30;;;;;;;;;;5046864;28;20103;-76
2023/08/24 02:25:45;;;;;;;7.50;3.42;;;;;;;;;;5048844;28;20510;-77
2023/08/24 02:28:10;;;;;;;5.20;3.13;;;;;;;;;;5038716;28;20420;-76
2023/08/24 02:30:38;;;;;;;7.13;4.05;;;;;;;;;;5044591;28;20026;-76
2023/08/24 02:33:04;;;;;;;7.85;3.80;;;;;;;;;;5027683;28;20028;-76
2023/08/24 02:35:29;;;;;;;4.40;3.03;;;;;;;;;;5036414;28;20123;-76
2023/08/24 02:37:56;;;;;;;6.45;3.17;;;;;;;;;;5037185;28;20033;-76
2023/08/24 02:40:22;;;;;;;4.20;3.33;;;;;;;;;;5043245;28;20112;-76
2023/08/24 02:42:47;;;;;;;6.75;3.42;;;;;;;;;;5045986;28;20099;-76
2023/08/24 02:45:12;;;;;;;4.72;3.10;;;;;;;;;;5049869;28;20037;-76
2023/08/24 02:47:37;;;;;;;5.65;3.53;;;;;;;;;;5045726;28;20025;-76
2023/08/24 02:50:04;;;;;;;4.82;2.88;;;;;;;;;;5049835;28;20028;-76
2023/08/24 02:52:29;;;;;;;4.93;3.45;;;;;;;;;;5050402;28;20217;-76
2023/08/24 02:54:56;;;;;;;7.10;3.22;;;;;;;;;;5051989;28;20088;-77
2023/08/24 02:57:21;;;;;;;5.22;3.95;;;;;;;;;;5038480;28;20057;-77
2023/08/24 02:59:47;;;;;;;5.63;4.13;;;;;;;;;;5052528;28;20587;-77
2023/08/24 03:02:12;;;;;;;7.82;4.15;;;;;;;;;;5043139;28;20036;-76
2023/08/24 03:04:37;;;;;;;4.85;2.85;;;;;;;;;;5024562;28;20030;-77
2023/08/24 03:07:03;;;;;;;6.53;4.00;;;;;;;;;;5053031;28;20040;-77
2023/08/24 03:09:29;;;;;;;6.03;4.07;;;;;;;;;;5040026;28;20037;-77
2023/08/24 03:11:54;;;;;;;5.55;3.30;;;;;;;;;;5020619;28;20452;-77
2023/08/24 03:14:20;;;;;;;8.15;4.65;;;;;;;;;;5027349;28;20568;-77
2023/08/24 03:16:45;;;;;;;7.47;4.85;;;;;;;;;;5039373;28;20092;-77
2023/08/24 03:19:12;;;;;;;5.32;3.80;;;;;;;;;;5037026;28;20032;-77
2023/08/24 03:21:37;;;;;;;5.57;3.50;;;;;;;;;;5035543;28;20029;-77
2023/08/24 03:24:04;;;;;;;6.20;4.53;;;;;;;;;;5037343;28;20033;-76
2023/08/24 03:26:30;;;;;;;4.90;3.70;;;;;;;;;;5051455;28;20403;-77
2023/08/24 03:28:55;;;;;;;5.75;3.47;;;;;;;;;;5034427;28;20522;-77
2023/08/24 03:31:20;;;;;;;4.95;3.60;;;;;;;;;;5056149;28;20088;-76
2023/08/24 03:33:45;;;;;;;4.70;3.30;;;;;;;;;;5038972;28;20030;-77
2023/08/24 03:36:11;;;;;;;6.80;3.42;;;;;;;;;;5040997;28;20029;-76
2023/08/24 03:38:36;;;;;;;6.53;4.35;;;;;;;;;;5052518;28;20518;-76
2023/08/24 03:41:04;;;;;;;6.60;4.25;;;;;;;;;;5033883;28;20400;-77
2023/08/24 03:43:33;;;;;;;5.22;4.28;;;;;;;;;;5053233;28;20032;-77
2023/08/24 03:45:58;;;;;;;6.40;4.18;;;;;;;;;;5031805;28;20069;-77
2023/08/24 03:48:23;;;;;;;6.47;3.58;;;;;;;;;;5022751;28;20408;-76
2023/08/24 03:50:49;;;;;;;5.75;3.95;;;;;;;;;;5041745;28;20025;-76
2023/08/24 03:53:14;;;;;;;8.30;4.63;;;;;;;;;;5038089;28;20029;-77
2023/08/24 03:55:39;;;;;;;6.85;4.50;;;;;;;;;;5038727;28;20036;-76
2023/08/24 03:58:04;;;;;;;6.95;5.80;;;;;;;;;;5039416;28;20021;-77
2023/08/24 04:00:30;;;;;;;7.75;5.60;;;;;;;;;;5047648;28;20036;-77
2023/08/24 04:02:56;;;;;;;7.90;5.15;;;;;;;;;;5037925;28;20029;-76
2023/08/24 04:05:24;;;;;;;8.25;4.63;;;;;;;;;;5040543;28;20459;-77
2023/08/24 04:07:50;;;;;;;7.30;5.50;;;;;;;;;;5033096;28;20033;-77
2023/08/24 04:10:15;;;;;;;6.32;5.65;;;;;;;;;;5034551;28;20036;-76
2023/08/24 04:12:40;;;;;;;5.28;4.50;;;;;;;;;;5039824;28;20098;-77
2023/08/24 04:15:06;;;;;;;5.70;4.38;;;;;;;;;;5041460;28;20029;-77
2023/08/24 04:17:31;;;;;;;6.57;4.85;;;;;;;;;;5030254;28;20035;-76
2023/08/24 04:19:56;;;;;;;6.53;5.35;;;;;;;;;;5050069;28;20041;-77
2023/08/24 04:22:22;;;;;;;10.18;5.78;;;;;;;;;;5048701;28;20029;-76
2023/08/24 04:24:47;;;;;;;7.05;4.78;;;;;;;;;;5045407;28;20124;-76
2023/08/24 04:27:13;;;;;;;7.25;4.95;;;;;;;;;;5048334;28;20029;-77
2023/08/24 04:29:38;;;;;;;6.93;4.40;;;;;;;;;;5047679;28;20033;-77
2023/08/24 04:32:03;;;;;;;7.25;4.90;;;;;;;;;;5050068;28;20055;-77
2023/08/24 04:34:28;;;;;;;5.95;5.13;;;;;;;;;;5058535;28;20042;-77
2023/08/24 04:36:54;;;;;;;9.07;6.10;;;;;;;;;;5053712;28;20040;-76
2023/08/24 04:39:19;;;;;;;9.30;6.05;;;;;;;;;;5049527;28;20033;-76
2023/08/24 04:41:45;;;;;;;9.88;7.82;;;;;;;;;;5060293;28;20112;-77
2023/08/24 04:44:10;;;;;;;11.43;6.97;;;;;;;;;;5052412;28;20030;-77
2023/08/24 04:46:35;;;;;;;6.75;5.15;;;;;;;;;;5053066;28;20025;-76
2023/08/24 04:49:00;;;;;;;6.53;4.90;;;;;;;;;;5051200;28;20622;-76
2023/08/24 04:51:27;;;;;;;7.55;5.63;;;;;;;;;;5048009;28;20033;-75
2023/08/24 04:53:53;;;;;;;6.63;5.00;;;;;;;;;;5032527;28;20082;-76
2023/08/24 04:56:19;;;;;;;6.65;5.22;;;;;;;;;;5055604;28;20546;-76
2023/08/24 04:58:57;;;;;;;11.13;6.57;;;;;;;;;;5055756;28;20112;-76
2023/08/24 05:01:26;;;;;;;7.38;5.72;;;;;;;;;;5046127;28;20029;-77
2023/08/24 05:03:52;;;;;;;8.25;5.38;;;;;;;;;;5053897;28;20021;-77
2023/08/24 05:06:17;;;;;;;10.05;6.40;;;;;;;;;;5040864;28;20030;-77
2023/08/24 05:08:42;;;;;;;8.07;7.00;;;;;;;;;;5045375;28;20039;-76
2023/08/24 05:11:18;;;;;;;8.60;6.45;;;;;;;;;;5044412;28;20442;-77
2023/08/24 05:13:43;;;;;;;7.88;5.40;;;;;;;;;;5040290;28;20036;-77
2023/08/24 05:16:09;;;;;;;6.95;5.50;;;;;;;;;;5053030;28;20037;-77
2023/08/24 05:18:36;;;;;;;6.85;6.13;;;;;;;;;;5043269;28;20047;-76
2023/08/24 05:21:01;;;;;;;7.35;6.20;;;;;;;;;;5044555;28;20040;-76
2023/08/24 05:23:26;;;;;;;6.13;5.38;;;;;;;;;;5061532;28;20442;-76
2023/08/24 05:25:52;;;;;;;6.18;4.68;;;;;;;;;;5055705;28;20059;-77
2023/08/24 05:28:17;;;;;;;8.43;6.25;;;;;;;;;;5045238;28;20064;-77
2023/08/24 05:30:43;;;;;;;7.47;6.68;;;;;;;;;;5042760;28;20036;-77
2023/08/24 05:33:08;;;;;;;7.03;6.15;;;;;;;;;;5054284;28;20037;-76
2023/08/24 05:35:34;;;;;;;7.18;5.65;;;;;;;;;;5052407;28;20518;-77
2023/08/24 05:37:59;;;;;;;8.23;6.45;;;;;;;;;;5043635;28;20031;-77
2023/08/24 05:40:24;;;;;;;6.63;5.90;;;;;;;;;;5053275;28;20087;-77
2023/08/24 05:42:49;;;;;;;8.95;6.80;;;;;;;;;;5055156;28;20033;-77
2023/08/24 05:45:14;;;;;;;11.75;10.55;;;;;;;;;;5057642;28;20033;-78
2023/08/24 05:47:40;;;;;;;10.77;9.20;;;;;;;;;;5055292;28;20093;-77
2023/08/24 05:50:05;;;;;;;8.43;7.40;;;;;;;;;;5057465;28;20028;-76
2023/08/24 05:52:30;;;;;;;8.88;5.68;;;;;;;;;;5054613;28;20028;-77
2023/08/24 05:54:56;;;;;;;7.18;6.10;;;;;;;;;;5042678;28;20764;-77
2023/08/24 05:57:21;;;;;;;7.30;5.97;;;;;;;;;;5052869;28;20025;-76
2023/08/24 05:59:47;;;;;;;9.10;6.35;;;;;;;;;;5051444;28;20295;-77
2023/08/24 06:02:12;;;;;;;7.72;6.95;;;;;;;;;;5053507;28;20021;-77
2023/08/24 06:04:37;;;;;;;7.72;6.38;;;;;;;;;;5058377;28;20036;-77
2023/08/24 06:07:04;;;;;;;7.07;5.40;;;;;;;;;;5044438;28;20025;-77
2023/08/24 06:09:29;;;;;;;6.57;5.65;;;;;;;;;;5033533;28;20033;-77
2023/08/24 06:11:55;;;;;;;6.03;5.00;;;;;;;;;;5035560;28;20603;-77
2023/08/24 06:14:20;;;;;;;7.25;6.07;;;;;;;;;;5053772;28;20112;-76
2023/08/24 06:16:45;;;;;;;8.38;7.32;;;;;;;;;;5041546;28;20511;-77
2023/08/24 06:19:10;;;;;;;7.82;7.03;;;;;;;;;;5043294;28;20033;-77
2023/08/24 06:21:36;;;;;;;8.45;7.55;;;;;;;;;;5045818;28;20023;-77
2023/08/24 06:24:01;;;;;;;8.48;7.07;;;;;;;;;;5044653;28;20033;-77
2023/08/24 06:26:26;;;;;;;9.20;7.97;;;;;;;;;;5036839;28;20036;-77
2023/08/24 06:28:51;;;;;;;8.05;6.97;;;;;;;;;;5061224;28;20272;-77
2023/08/24 06:31:16;;;;;;;7.68;6.53;;;;;;;;;;5027223;28;20028;-77
2023/08/24 06:33:42;;;;;;;8.93;6.32;;;;;;;;;;5062169;28;20063;-77
2023/08/24 06:36:12;;;;;;;8.63;6.63;;;;;;;;;;5045477;28;20025;-77
2023/08/24 06:38:37;;;;;;;6.85;5.68;;;;;;;;;;5039371;28;20064;-77
2023/08/24 06:41:02;;;;;;;6.70;6.00;;;;;;;;;;5024277;28;20037;-77
2023/08/24 06:43:28;;;;;;;8.05;5.22;;;;;;;;;;5056061;28;20052;-77
2023/08/24 06:45:57;;;;;;;7.47;6.05;;;;;;;;;;5045376;28;20103;-77
2023/08/24 06:48:22;;;;;;;8.48;6.20;;;;;;;;;;5043453;28;20032;-77
2023/08/24 06:50:47;;;;;;;8.38;6.38;;;;;;;;;;5053886;28;20024;-77
2023/08/24 06:53:14;;;;;;;8.57;6.10;;;;;;;;;;5055698;28;20075;-77
2023/08/24 06:55:39;;;;;;;6.95;4.72;;;;;;;;;;5034591;28;20574;-77
2023/08/24 06:58:05;;;;;;;8.23;5.18;;;;;;;;;;5056377;28;20040;-77
2023/08/24 07:00:30;;;;;;;13.40;7.97;;;;;;;;;;5050387;28;20037;-77
2023/08/24 07:02:56;;;;;;;14.13;7.75;;;;;;;;;;5034339;28;20120;-77
2023/08/24 07:05:21;;;;;;;10.63;6.80;;;;;;;;;;5052975;28;20037;-77
2023/08/24 07:07:47;;;;;;;10.05;8.40;;;;;;;;;;5057599;28;20540;-77
2023/08/24 07:10:12;;;;;;;12.55;7.03;;;;;;;;;;5051617;28;20086;-77
2023/08/24 07:12:40;;;;;;;7.47;6.00;;;;;;;;;;5049801;28;20221;-77
2023/08/24 07:15:06;;;;;;;11.52;6.63;;;;;;;;;;5042883;28;20034;-77
2023/08/24 07:17:31;;;;;;;9.65;6.35;;;;;;;;;;5053996;28;20032;-77
2023/08/24 07:19:56;;;;;;;8.70;5.47;;;;;;;;;;5052659;28;20040;-77
2023/08/24 07:22:21;;;;;;;7.40;6.45;;;;;;;;;;5051996;28;20268;-77
2023/08/24 07:24:52;;;;;;;7.10;5.32;;;;;;;;;;5049856;28;20044;-76
2023/08/24 07:27:17;;;;;;;9.80;6.75;;;;;;;;;;5033699;28;20071;-76
2023/08/24 07:29:42;;;;;;;5.88;4.78;;;;;;;;;;5034334;28;20037;-76
2023/08/24 07:32:07;;;;;;;7.90;5.10;;;;;;;;;;5044623;28;20096;-76
2023/08/24 07:34:33;;;;;;;8.07;4.40;;;;;;;;;;5044515;28;20287;-76
2023/08/24 07:36:58;;;;;;;5.93;4.70;;;;;;;;;;5045362;28;20029;-76
2023/08/24 07:39:23;;;;;;;7.57;4.30;;;;;;;;;;5032185;28;20307;-76
2023/08/24 07:41:50;;;;;;;9.77;7.00;;;;;;;;;;5037185;28;20275;-76
2023/08/24 07:44:15;;;;;;;12.38;5.57;;;;;;;;;;5036588;28;20039;-76
2023/08/24 07:46:40;;;;;;;11.33;5.87;;;;;;;;;;5042375;28;20103;-76
2023/08/24 07:49:05;;;;;;;9.57;4.47;;;;;;;;;;5044874;28;20693;-76
2023/08/24 07:51:32;;;;;;;10.00;7.27;;;;;;;;;;5045304;28;20334;-77
2023/08/24 07:53:57;;;;;;;10.52;5.85;;;;;;;;;;5042456;28;20276;-76
2023/08/24 07:56:23;;;;;;;8.93;6.03;;;;;;;;;;5033314;28;20034;-76
2023/08/24 07:58:48;;;;;;;10.57;6.15;;;;;;;;;;5048831;28;20631;-76
2023/08/24 08:01:13;;;;;;;7.32;5.88;;;;;;;;;;5045924;28;20488;-75
2023/08/24 08:03:38;;;;;;;8.40;5.03;;;;;;;;;;5033835;28;20348;-77
2023/08/24 08:06:04;;;;;;;7.77;4.57;;;;;;;;;;5050969;28;20754;-76
2023/08/24 08:08:29;;;;;;;7.55;3.78;;;;;;;;;;5038782;28;20355;-75
2023/08/24 08:10:59;;;;;;;8.07;6.03;;;;;;;;;;5033156;28;20039;-77
2023/08/24 08:13:25;;;;;;;5.05;3.50;;;;;;;;;;5049959;28;20029;-76
2023/08/24 08:15:50;;;;;;;5.90;4.55;;;;;;;;;;5039421;28;20029;-76
2023/08/24 08:18:21;;;;;;;8.70;4.20;;;;;;;;;;5053143;28;20083;-76
2023/08/24 08:20:50;;;;;;;5.68;3.88;;;;;;;;;;5024431;28;20272;-76
2023/08/24 08:23:15;;;;;;;5.13;3.08;;;;;;;;;;5040254;28;20518;-77
2023/08/24 08:25:42;;;;;;;7.77;3.60;;;;;;;;;;5050930;28;20025;-76
2023/08/24 08:28:07;;;;;;;10.02;5.10;;;;;;;;;;5057535;28;20260;-77
2023/08/24 08:30:32;;;;;;;5.05;3.15;;;;;;;;;;5051205;28;20029;-76
2023/08/24 08:32:57;;;;;;;6.47;4.30;;;;;;;;;;5051536;28;20071;-76
2023/08/24 08:35:23;;;;;;;29.60;6.10;;;;;;;;;;5046953;28;20327;-76
2023/08/24 08:37:50;;;;;;;15.93;9.70;;;;;;;;;;5038583;28;20795;-76
2023/08/24 08:40:15;;;;;;;11.50;5.32;;;;;;;;;;5030005;28;20048;-76
2023/08/24 08:42:40;;;;;;;4.95;3.63;;;;;;;;;;5054260;28;20029;-76
2023/08/24 08:45:08;;;;;;;9.60;2.60;;;;;;;;;;5051050;28;20040;-76
2023/08/24 08:47:33;;;;;;;4.88;2.05;;;;;;;;;;5051367;28;20395;-77
2023/08/24 08:49:59;;;;;;;6.03;4.55;;;;;;;;;;5049051;28;20037;-76
2023/08/24 08:52:25;;;;;;;6.72;4.38;;;;;;;;;;5033388;28;20094;-76
2023/08/24 08:54:50;;;;;;;5.28;3.97;;;;;;;;;;5049370;28;20136;-76
2023/08/24 08:57:16;;;;;;;7.82;5.68;;;;;;;;;;5051668;28;20029;-76
2023/08/24 08:59:42;;;;;;;6.13;2.92;;;;;;;;;;5049595;28;20569;-77
2023/08/24 09:02:09;;;;;;;5.53;2.83;;;;;;;;;;5042869;28;20029;-76
2023/08/24 09:04:34;;;;;;;7.63;4.60;;;;;;;;;;5051556;28;20022;-77
2023/08/24 09:07:07;;;;;;;5.93;3.05;;;;;;;;;;5051317;28;20033;-77
2023/08/24 09:09:33;;;;;;;5.85;5.18;;;;;;;;;;5051473;28;20037;-76
2023/08/24 09:11:58;;;;;;;6.50;3.97;;;;;;;;;;5043271;28;20029;-77
2023/08/24 09:14:24;;;;;;;6.82;4.53;;;;;;;;;;5054379;28;20037;-77
2023/08/24 09:16:49;;;;;;;4.97;2.80;;;;;;;;;;5052973;28;20487;-77
2023/08/24 09:19:14;;;;;;;3.65;2.35;;;;;;;;;;5051736;28;20043;-78
2023/08/24 09:21:41;;;;;;;8.93;3.83;;;;;;;;;;5051624;28;20032;-76
2023/08/24 09:24:06;;;;;;;5.65;3.10;;;;;;;;;;5037496;28;20025;-77
2023/08/24 09:26:33;;;;;;;5.78;2.60;;;;;;;;;;5047624;28;20035;-77
2023/08/24 09:28:59;;;;;;;2.97;1.73;;;;;;;;;;5035536;28;20499;-77
2023/08/24 09:31:35;;;;;;;6.25;3.63;;;;;;;;;;5047025;28;20056;-77
2023/08/24 09:34:01;;;;;;;3.78;1.92;;;;;;;;;;5043530;28;20033;-77
2023/08/24 09:36:26;;;;;;;7.88;2.60;;;;;;;;;;5048061;28;20524;-77
2023/08/24 09:38:52;;;;;;;3.87;2.13;;;;;;;;;;5044155;28;20033;-76
2023/08/24 09:41:17;;;;;;;5.13;2.85;;;;;;;;;;5032345;28;20362;-77
2023/08/24 09:43:42;;;;;;;4.47;2.40;;;;;;;;;;5045643;28;20060;-77
2023/08/24 09:46:08;;;;;;;3.87;2.27;;;;;;;;;;5035631;28;20084;-76
2023/08/24 09:48:33;;;;;;;5.60;1.95;;;;;;;;;;5045460;28;20276;-77
2023/08/24 09:51:00;;;;;;;5.25;2.17;;;;;;;;;;5044266;28;20025;-77
2023/08/24 09:53:27;;;;;;;5.03;3.17;;;;;;;;;;5046980;28;20064;-76
2023/08/24 09:55:55;;;;;;;3.50;2.10;;;;;;;;;;5044668;28;20049;-76
2023/08/24 09:58:21;;;;;;;3.13;1.58;;;;;;;;;;5032679;28;20507;-77
2023/08/24 10:00:47;;;;;;;3.97;2.40;;;;;;;;;;5045148;28;20141;-76
2023/08/24 10:03:16;;;;;;;8.45;3.85;;;;;;;;;;5026669;28;20116;-76
2023/08/24 10:05:43;;;;;;;5.22;2.80;;;;;;;;;;5046276;28;20029;-76
2023/08/24 10:08:09;;;;;;;5.82;2.10;;;;;;;;;;5046828;28;20108;-76
2023/08/24 10:10:35;;;;;;;6.28;2.75;;;;;;;;;;5045633;28;20487;-76
2023/08/24 10:13:04;;;;;;;4.65;1.85;;;;;;;;;;5045072;28;20107;-76
2023/08/24 10:15:30;;;;;;;4.35;2.03;;;;;;;;;;5025396;28;20582;-76
2023/08/24 10:17:56;;;;;;;3.58;1.75;;;;;;;;;;5043792;28;20033;-76
2023/08/24 10:20:21;;;;;;;5.05;2.35;;;;;;;;;;5030981;28;20041;-76
2023/08/24 10:22:47;;;;;;;5.60;2.63;;;;;;;;;;5043543;28;20442;-76
2023/08/24 10:25:13;;;;;;;5.75;2.50;;;;;;;;;;5044402;28;20104;-75
2023/08/24 10:27:43;;;;;;;7.82;2.90;;;;;;;;;;5026433;28;20381;-76
2023/08/24 10:30:08;;;;;;;6.80;4.47;;;;;;;;;;5040704;28;20030;-76
2023/08/24 10:32:34;;;;;;;6.60;5.35;;;;;;;;;;5041556;28;20032;-76
2023/08/24 10:34:59;;;;;;;12.35;6.40;;;;;;;;;;5042747;28;20404;-76
2023/08/24 10:37:25;;;;;;;4.28;2.55;;;;;;;;;;5043369;28;20038;-76
2023/08/24 10:39:50;;;;;;;4.05;1.98;;;;;;;;;;5041840;28;20121;-76
2023/08/24 10:42:16;;;;;;;5.67;2.37;;;;;;;;;;5042220;28;20123;-76
2023/08/24 10:44:46;;;;;;;60.53;9.20;;;;;;;;;;5043111;28;20276;-75
2023/08/24 10:47:15;;;;;;;6.43;4.20;;;;;;;;;;5045202;28;20307;-75
2023/08/24 10:49:44;;;;;;;5.85;2.72;;;;;;;;;;5038912;28;20053;-75
2023/08/24 10:52:22;;;;;;;5.25;3.00;;;;;;;;;;5026904;28;20033;-75
2023/08/24 10:54:51;;;;;;;4.25;2.67;;;;;;;;;;5043461;28;20115;-75
2023/08/24 10:57:29;;;;;;;6.30;3.10;;;;;;;;;;5027275;28;20474;-75
2023/08/24 11:00:09;;;;;;;6.80;4.60;;;;;;;;;;5039470;28;20038;-75
2023/08/24 11:02:42;;;;;;;6.57;3.22;;;;;;;;;;5040027;28;20033;-74
2023/08/24 11:05:16;;;;;;;6.57;3.40;;;;;;;;;;5041778;28;20032;-75
2023/08/24 11:07:54;;;;;;;5.63;2.70;;;;;;;;;;5041955;28;20458;-76
2023/08/24 11:10:19;;;;;;;5.53;2.05;;;;;;;;;;5038796;28;20044;-75
2023/08/24 11:13:03;;;;;;;5.82;3.08;;;;;;;;;;5041714;28;20041;-77
2023/08/24 11:15:32;;;;;;;7.55;3.22;;;;;;;;;;5029606;28;20036;-77
2023/08/24 11:18:13;;;;;;;4.30;2.80;;;;;;;;;;5040873;28;20033;-76
2023/08/24 11:20:38;;;;;;;;;;;;;;;;;;5042805;28;20078;-77
2023/08/24 11:23:03;;;;;;;3.88;2.33;;;;;;;;;;5030386;28;20342;-77
2023/08/24 11:25:29;;;;;;;5.07;3.87;;;;;;;;;;5042572;28;20025;-77
2023/08/24 11:27:56;;;;;;;11.00;4.03;;;;;;;;;;5039903;28;20308;-77
2023/08/24 11:30:22;;;;;;;4.85;1.90;;;;;;;;;;5041018;28;20474;-77
2023/08/24 11:32:52;;;;;;;7.10;3.70;;;;;;;;;;5040510;28;20052;-77
2023/08/24 11:35:18;;;;;;;5.78;2.70;;;;;;;;;;5045643;28;20677;-77
2023/08/24 11:37:43;;;;;;;5.70;4.97;;;;;;;;;;5041299;28;20087;-77
2023/08/24 11:40:16;;;;;;;5.38;3.10;;;;;;;;;;5029669;28;20037;-77
2023/08/24 11:42:41;;;;;;;4.55;2.30;;;;;;;;;;5046673;28;20025;-77
2023/08/24 11:45:12;;;;;;;7.78;4.15;;;;;;;;;;5047089;28;20591;-77
2023/08/24 11:47:37;;;;;;;5.30;2.92;;;;;;;;;;5043572;28;20575;-76
2023/08/24 11:50:03;;;;;;;3.95;1.73;;;;;;;;;;5049582;28;20092;-77
2023/08/24 11:52:29;;;;;;;2.97;1.73;;;;;;;;;;5037007;28;20504;-77
2023/08/24 11:54:54;;;;;;;5.32;3.40;;;;;;;;;;5047113;28;20146;-76
2023/08/24 11:57:19;;;;;;;3.97;2.70;;;;;;;;;;5045673;28;20049;-75
2023/08/24 11:59:45;;;;;;;6.20;3.90;;;;;;;;;;5050354;28;20028;-75
2023/08/24 12:02:11;;;;;;;4.40;3.38;;;;;;;;;;5053187;28;20037;-74
2023/08/24 12:04:39;;;;;;;5.45;2.17;;;;;;;;;;5045376;28;20036;-75
2023/08/24 12:07:11;;;;;;;5.00;3.80;;;;;;;;;;5047670;28;20025;-75
2023/08/24 12:09:37;;;;;;;6.15;3.05;;;;;;;;;;5045529;28;20017;-75
2023/08/24 12:12:03;;;;;;;6.72;3.80;;;;;;;;;;5030201;28;20025;-75
2023/08/24 12:14:39;;;;;;;5.22;2.22;;;;;;;;;;5045944;28;20033;-75
2023/08/24 12:17:07;;;;;;;5.55;1.90;;;;;;;;;;5045251;28;20114;-75
2023/08/24 12:19:32;;;;;;;5.95;3.60;;;;;;;;;;5046716;28;20041;-76
2023/08/24 12:21:58;;;;;;;5.65;4.35;;;;;;;;;;5034058;28;20075;-75
2023/08/24 12:24:23;;;;;;;8.47;4.00;;;;;;;;;;5039153;28;20033;-75
2023/08/24 12:26:54;;;;;;;5.67;4.40;;;;;;;;;;5042565;28;20283;-73
2023/08/24 12:29:20;;;;;;;6.82;3.88;;;;;;;;;;5043625;28;20037;-75
2023/08/24 12:31:45;;;;;;;5.43;4.00;;;;;;;;;;5044589;28;20399;-74
2023/08/24 12:34:10;;;;;;;5.80;3.30;;;;;;;;;;5045859;28;20468;-74
2023/08/24 12:36:36;;;;;;;9.00;3.50;;;;;;;;;;5034053;28;20029;-75
2023/08/24 12:39:04;;;;;;;7.05;3.00;;;;;;;;;;5044146;28;20050;-75
2023/08/24 12:41:29;;;;;;;4.63;2.90;;;;;;;;;;5049732;28;20061;-75
2023/08/24 12:43:54;;;;;;;4.78;2.35;;;;;;;;;;5045685;28;20465;-74
2023/08/24 12:46:20;;;;;;;5.80;2.90;;;;;;;;;;5033008;28;20055;-75
2023/08/24 12:48:45;;;;;;;7.93;3.58;;;;;;;;;;5043802;28;20322;-75
2023/08/24 12:51:11;;;;;;;7.68;3.28;;;;;;;;;;5027455;28;20045;-75
2023/08/24 12:53:36;;;;;;;6.32;3.60;;;;;;;;;;5042615;28;20135;-75
2023/08/24 12:56:01;;;;;;;4.85;2.50;;;;;;;;;;5044422;28;20380;-76
2023/08/24 12:58:26;;;;;;;5.87;3.57;;;;;;;;;;5034816;28;20025;-74
2023/08/24 13:00:52;;;;;;;4.47;2.57;;;;;;;;;;5031652;28;20276;-75
2023/08/24 13:03:17;;;;;;;4.57;3.10;;;;;;;;;;5034888;28;20033;-75
2023/08/24 13:05:42;;;;;;;5.60;2.80;;;;;;;;;;5035465;28;20017;-76
2023/08/24 13:08:07;;;;;;;7.17;3.33;;;;;;;;;;5042583;28;20108;-75
2023/08/24 13:10:33;;;;;;;5.93;2.10;;;;;;;;;;5042902;28;20076;-76
2023/08/24 13:12:58;;;;;;;5.72;2.60;;;;;;;;;;5045225;28;20120;-76
2023/08/24 13:15:24;;;;;;;3.93;2.00;;;;;;;;;;5047609;28;20067;-75
2023/08/24 13:17:49;;;;;;;7.80;3.35;;;;;;;;;;5052086;28;20064;-75
2023/08/24 13:20:15;;;;;;;4.37;2.60;;;;;;;;;;5033769;28;20029;-76
2023/08/24 13:22:40;;;;;;;4.53;1.90;;;;;;;;;;5047026;28;20096;-75
2023/08/24 13:25:05;;;;;;;6.17;2.03;;;;;;;;;;5040897;28;20458;-74
2023/08/24 13:27:31;;;;;;;4.60;2.78;;;;;;;;;;5044257;28;20587;-75
2023/08/24 13:29:59;;;;;;;5.22;2.17;;;;;;;;;;5040028;28;20029;-75
2023/08/24 13:32:24;;;;;;;4.20;1.92;;;;;;;;;;5042006;28;20492;-75
2023/08/24 13:34:49;;;;;;;5.80;2.80;;;;;;;;;;5044333;28;20029;-75
2023/08/24 13:37:15;;;;;;;5.40;3.47;;;;;;;;;;5034648;28;20033;-75
2023/08/24 13:39:40;;;;;;;6.53;2.33;;;;;;;;;;5029682;28;20034;-75
2023/08/24 13:42:05;;;;;;;4.90;2.90;;;;;;;;;;5041152;28;20082;-75
2023/08/24 13:44:30;;;;;;;4.03;2.23;;;;;;;;;;5047120;28;20036;-75
2023/08/24 13:46:55;;;;;;;3.67;1.97;;;;;;;;;;5033429;28;20110;-75
2023/08/24 13:49:21;;;;;;;5.47;2.20;;;;;;;;;;5040817;28;20172;-75
2023/08/24 13:51:46;;;;;;;7.10;2.40;;;;;;;;;;5043814;28;20124;-75
2023/08/24 13:54:13;;;;;;;6.47;1.70;;;;;;;;;;5041458;28;20026;-75
2023/08/24 13:56:38;;;;;;;7.28;2.30;;;;;;;;;;5044541;28;20545;-75
2023/08/24 13:59:03;;;;;;;7.57;2.77;;;;;;;;;;5043547;28;20034;-75
2023/08/24 14:01:28;;;;;;;3.00;1.50;;;;;;;;;;5042917;28;20029;-75
2023/08/24 14:03:53;;;;;;;4.50;1.97;;;;;;;;;;5041611;28;20064;-75
2023/08/24 14:06:19;;;;;;;5.47;2.33;;;;;;;;;;5043101;28;20061;-75
2023/08/24 14:08:44;;;;;;;4.40;2.03;;;;;;;;;;5042235;28;20477;-74
2023/08/24 14:11:09;;;;;;;3.27;1.70;;;;;;;;;;5045796;28;20033;-76
2023/08/24 14:13:34;;;;;;;3.60;2.00;;;;;;;;;;5043879;28;20088;-75
2023/08/24 14:16:00;;;;;;;4.37;1.87;;;;;;;;;;5043929;28;20068;-76
2023/08/24 14:18:25;;;;;;;4.80;2.70;;;;;;;;;;5046092;28;20029;-76
2023/08/24 14:20:51;;;;;;;4.50;2.87;;;;;;;;;;5049584;28;20033;-77
2023/08/24 14:23:16;;;;;;;6.82;1.70;;;;;;;;;;5039638;28;20280;-76
2023/08/24 14:25:41;;;;;;;3.23;1.67;;;;;;;;;;5043737;28;20020;-76
2023/08/24 14:28:06;;;;;;;3.00;1.80;;;;;;;;;;5042527;28;20762;-75
2023/08/24 14:30:31;;;;;;;5.57;3.63;;;;;;;;;;5046257;28;20029;-75
2023/08/24 14:32:57;;;;;;;4.23;2.33;;;;;;;;;;5041551;28;20029;-76
2023/08/24 14:35:22;;;;;;;6.50;3.90;;;;;;;;;;5048616;28;20060;-76
2023/08/24 14:37:47;;;;;;;4.13;3.00;;;;;;;;;;5041795;28;20072;-75